sensor_id;sensor_type;location;lat;lon;timestamp;temperature;humidity
13346;DHT22;6742;48.036;15.780;2022-10-12T00:01:39;14.60;99.90
13346;DHT22;6742;48.036;15.780;2022-10-12T00:04:06;14.60;99.90
13346;DHT22;6742;48.036;15.780;2022-10-12T00:06:36;14.60;99.90
13346;DHT22;6742;48.036;15.780;2022-10-12T00:09:03;14.60;99.90
13346;DHT22;6742;48.036;15.780;2022-10-12T00:11:30;14.60;99.90
13346;DHT22;6742;48.036;15.780;2022-10-12T00:13:58;14.50;99.90
13346;DHT22;6742;48.036;15.780;2022-10-12T00:16:28;14.50;99.90
13346;DHT22;6742;48.036;15.780;2022-10-12T00:18:58;14.50;99.90
13346;DHT22;6742;48.036;15.780;2022-10-12T00:21:26;14.50;99.90
13346;DHT22;6742;48.036;15.780;2022-10-12T00:23:55;14.50;99.90
13346;DHT22;6742;48.036;15.780;2022-10-12T00:26:22;14.50;99.90
13346;DHT22;6742;48.036;15.780;2022-10-12T00:28:54;14.50;99.90
13346;DHT22;6742;48.036;15.780;2022-10-12T00:31:22;14.50;99.90
13346;DHT22;6742;48.036;15.780;2022-10-12T00:33:49;14.50;99.90
13346;DHT22;6742;48.036;15.780;2022-10-12T00:36:18;14.50;99.90
13346;DHT22;6742;48.036;15.780;2022-10-12T00:38:49;14.50;99.90
13346;DHT22;6742;48.036;15.780;2022-10-12T00:41:19;14.50;99.90
13346;DHT22;6742;48.036;15.780;2022-10-12T00:43:47;14.50;99.90
13346;DHT22;6742;48.036;15.780;2022-10-12T00:46:18;14.50;99.90
13346;DHT22;6742;48.036;15.780;2022-10-12T00:48:49;14.50;99.90
13346;DHT22;6742;48.036;15.780;2022-10-12T00:51:21;14.50;99.90
13346;DHT22;6742;48.036;15.780;2022-10-12T00:53:51;14.50;99.90
13346;DHT22;6742;48.036;15.780;2022-10-12T00:56:21;14.50;99.90
13346;DHT22;6742;48.036;15.780;2022-10-12T00:58:49;14.50;99.90
13346;DHT22;6742;48.036;15.780;2022-10-12T01:01:17;14.50;99.90
13346;DHT22;6742;48.036;15.780;2022-10-12T01:03:44;14.50;99.90
13346;DHT22;6742;48.036;15.780;2022-10-12T01:06:11;14.40;99.90
13346;DHT22;6742;48.036;15.780;2022-10-12T01:08:42;14.40;99.90
13346;DHT22;6742;48.036;15.780;2022-10-12T01:11:09;14.40;99.90
13346;DHT22;6742;48.036;15.780;2022-10-12T01:13:37;14.40;99.90
13346;DHT22;6742;48.036;15.780;2022-10-12T01:16:09;14.40;99.90
13346;DHT22;6742;48.036;15.780;2022-10-12T01:18:42;14.40;99.90
13346;DHT22;6742;48.036;15.780;2022-10-12T01:21:16;14.40;99.90
13346;DHT22;6742;48.036;15.780;2022-10-12T01:24:06;14.40;99.90
13346;DHT22;6742;48.036;15.780;2022-10-12T01:26:52;14.40;99.90
13346;DHT22;6742;48.036;15.780;2022-10-12T01:29:37;14.50;99.90
13346;DHT22;6742;48.036;15.780;2022-10-12T01:32:10;14.40;99.90
13346;DHT22;6742;48.036;15.780;2022-10-12T01:34:44;14.40;99.90
13346;DHT22;6742;48.036;15.780;2022-10-12T01:37:17;14.40;99.90
13346;DHT22;6742;48.036;15.780;2022-10-12T01:39:51;14.40;99.90
13346;DHT22;6742;48.036;15.780;2022-10-12T01:42:23;14.40;99.90
13346;DHT22;6742;48.036;15.780;2022-10-12T01:45:00;14.40;99.90
13346;DHT22;6742;48.036;15.780;2022-10-12T01:47:28;14.40;99.90
13346;DHT22;6742;48.036;15.780;2022-10-12T01:49:56;14.40;99.90
13346;DHT22;6742;48.036;15.780;2022-10-12T01:52:27;14.30;99.90
13346;DHT22;6742;48.036;15.780;2022-10-12T01:55:18;14.40;99.90
13346;DHT22;6742;48.036;15.780;2022-10-12T01:57:57;14.40;99.90
13346;DHT22;6742;48.036;15.780;2022-10-12T02:00:30;14.40;99.90
13346;DHT22;6742;48.036;15.780;2022-10-12T02:03:09;14.30;99.90
13346;DHT22;6742;48.036;15.780;2022-10-12T02:05:46;14.30;99.90
13346;DHT22;6742;48.036;15.780;2022-10-12T02:08:18;14.30;99.90
13346;DHT22;6742;48.036;15.780;2022-10-12T02:10:54;14.30;99.90
13346;DHT22;6742;48.036;15.780;2022-10-12T02:13:25;14.30;99.90
13346;DHT22;6742;48.036;15.780;2022-10-12T02:15:54;14.30;99.90
13346;DHT22;6742;48.036;15.780;2022-10-12T02:18:24;14.30;99.90
13346;DHT22;6742;48.036;15.780;2022-10-12T02:20:53;14.30;99.90
13346;DHT22;6742;48.036;15.780;2022-10-12T02:23:21;14.20;99.90
13346;DHT22;6742;48.036;15.780;2022-10-12T02:25:50;14.20;99.90
13346;DHT22;6742;48.036;15.780;2022-10-12T02:28:22;14.20;99.90
13346;DHT22;6742;48.036;15.780;2022-10-12T02:30:58;14.20;99.90
13346;DHT22;6742;48.036;15.780;2022-10-12T02:33:30;14.20;99.90
13346;DHT22;6742;48.036;15.780;2022-10-12T02:36:02;14.20;99.90
13346;DHT22;6742;48.036;15.780;2022-10-12T02:38:32;14.10;99.90
13346;DHT22;6742;48.036;15.780;2022-10-12T02:41:03;14.10;99.90
13346;DHT22;6742;48.036;15.780;2022-10-12T02:43:36;14.10;99.90
13346;DHT22;6742;48.036;15.780;2022-10-12T02:46:06;14.10;99.90
13346;DHT22;6742;48.036;15.780;2022-10-12T02:48:36;14.10;99.90
13346;DHT22;6742;48.036;15.780;2022-10-12T02:51:05;14.10;99.90
13346;DHT22;6742;48.036;15.780;2022-10-12T02:53:33;14.00;99.90
13346;DHT22;6742;48.036;15.780;2022-10-12T02:56:05;14.00;99.90
13346;DHT22;6742;48.036;15.780;2022-10-12T02:58:33;14.00;99.90
13346;DHT22;6742;48.036;15.780;2022-10-12T03:01:00;14.00;99.90
13346;DHT22;6742;48.036;15.780;2022-10-12T03:03:27;14.00;99.90
13346;DHT22;6742;48.036;15.780;2022-10-12T03:05:55;14.00;99.90
13346;DHT22;6742;48.036;15.780;2022-10-12T03:08:25;13.90;99.90
13346;DHT22;6742;48.036;15.780;2022-10-12T03:10:52;13.90;99.90
13346;DHT22;6742;48.036;15.780;2022-10-12T03:13:19;13.90;99.90
13346;DHT22;6742;48.036;15.780;2022-10-12T03:15:46;13.90;99.90
13346;DHT22;6742;48.036;15.780;2022-10-12T03:18:13;13.90;99.90
13346;DHT22;6742;48.036;15.780;2022-10-12T03:20:40;13.90;99.90
13346;DHT22;6742;48.036;15.780;2022-10-12T03:23:08;13.90;99.90
13346;DHT22;6742;48.036;15.780;2022-10-12T03:25:35;13.90;99.90
13346;DHT22;6742;48.036;15.780;2022-10-12T03:28:02;13.80;99.90
13346;DHT22;6742;48.036;15.780;2022-10-12T03:30:29;13.80;99.90
13346;DHT22;6742;48.036;15.780;2022-10-12T03:32:56;13.80;99.90
13346;DHT22;6742;48.036;15.780;2022-10-12T03:35:23;13.80;99.90
13346;DHT22;6742;48.036;15.780;2022-10-12T03:37:50;13.80;99.90
13346;DHT22;6742;48.036;15.780;2022-10-12T03:40:18;13.80;99.90
13346;DHT22;6742;48.036;15.780;2022-10-12T03:42:45;13.80;99.90
13346;DHT22;6742;48.036;15.780;2022-10-12T03:45:12;13.80;99.90
13346;DHT22;6742;48.036;15.780;2022-10-12T03:47:39;13.80;99.90
13346;DHT22;6742;48.036;15.780;2022-10-12T03:50:10;13.80;99.90
13346;DHT22;6742;48.036;15.780;2022-10-12T03:52:37;13.80;99.90
13346;DHT22;6742;48.036;15.780;2022-10-12T03:55:04;13.80;99.90
13346;DHT22;6742;48.036;15.780;2022-10-12T03:57:33;13.80;99.90
13346;DHT22;6742;48.036;15.780;2022-10-12T04:00:00;13.80;99.90
13346;DHT22;6742;48.036;15.780;2022-10-12T04:02:27;13.80;99.90
13346;DHT22;6742;48.036;15.780;2022-10-12T04:04:54;13.80;99.90
13346;DHT22;6742;48.036;15.780;2022-10-12T04:07:21;13.70;99.90
13346;DHT22;6742;48.036;15.780;2022-10-12T04:09:49;13.70;99.90
13346;DHT22;6742;48.036;15.780;2022-10-12T04:12:16;13.70;99.90
13346;DHT22;6742;48.036;15.780;2022-10-12T04:14:45;13.70;99.90
13346;DHT22;6742;48.036;15.780;2022-10-12T04:17:13;13.70;99.90
13346;DHT22;6742;48.036;15.780;2022-10-12T04:19:41;13.70;99.90
13346;DHT22;6742;48.036;15.780;2022-10-12T04:22:11;13.70;99.90
13346;DHT22;6742;48.036;15.780;2022-10-12T04:24:38;13.60;99.90
13346;DHT22;6742;48.036;15.780;2022-10-12T04:27:05;13.60;99.90
13346;DHT22;6742;48.036;15.780;2022-10-12T04:29:32;13.50;99.90
13346;DHT22;6742;48.036;15.780;2022-10-12T04:32:00;13.60;99.90
13346;DHT22;6742;48.036;15.780;2022-10-12T04:34:27;13.60;99.90
13346;DHT22;6742;48.036;15.780;2022-10-12T04:36:54;13.50;99.90
13346;DHT22;6742;48.036;15.780;2022-10-12T04:39:21;13.50;99.90
13346;DHT22;6742;48.036;15.780;2022-10-12T04:41:48;13.50;99.90
13346;DHT22;6742;48.036;15.780;2022-10-12T04:44:15;13.50;99.90
13346;DHT22;6742;48.036;15.780;2022-10-12T04:46:42;13.50;99.90
13346;DHT22;6742;48.036;15.780;2022-10-12T04:49:10;13.50;99.90
13346;DHT22;6742;48.036;15.780;2022-10-12T04:51:40;13.50;99.90
13346;DHT22;6742;48.036;15.780;2022-10-12T04:54:08;13.40;99.90
13346;DHT22;6742;48.036;15.780;2022-10-12T04:56:35;13.50;99.90
13346;DHT22;6742;48.036;15.780;2022-10-12T04:59:02;13.50;99.90
13346;DHT22;6742;48.036;15.780;2022-10-12T05:01:29;13.50;99.90
13346;DHT22;6742;48.036;15.780;2022-10-12T05:03:56;13.60;99.90
13346;DHT22;6742;48.036;15.780;2022-10-12T05:06:26;13.60;99.90
13346;DHT22;6742;48.036;15.780;2022-10-12T05:08:53;13.60;99.90
13346;DHT22;6742;48.036;15.780;2022-10-12T05:11:20;13.60;99.90
13346;DHT22;6742;48.036;15.780;2022-10-12T05:13:47;13.60;99.90
13346;DHT22;6742;48.036;15.780;2022-10-12T05:16:13;13.60;99.90
13346;DHT22;6742;48.036;15.780;2022-10-12T05:18:40;13.60;99.90
13346;DHT22;6742;48.036;15.780;2022-10-12T05:21:07;13.60;99.90
13346;DHT22;6742;48.036;15.780;2022-10-12T05:23:35;13.70;99.90
13346;DHT22;6742;48.036;15.780;2022-10-12T05:26:02;13.70;99.90
13346;DHT22;6742;48.036;15.780;2022-10-12T05:28:29;13.70;99.90
13346;DHT22;6742;48.036;15.780;2022-10-12T05:30:59;13.70;99.90
13346;DHT22;6742;48.036;15.780;2022-10-12T05:33:25;13.60;99.90
13346;DHT22;6742;48.036;15.780;2022-10-12T05:35:52;13.60;99.90
13346;DHT22;6742;48.036;15.780;2022-10-12T05:38:19;13.60;99.90
13346;DHT22;6742;48.036;15.780;2022-10-12T05:40:47;13.60;99.90
13346;DHT22;6742;48.036;15.780;2022-10-12T05:43:14;13.60;99.90
13346;DHT22;6742;48.036;15.780;2022-10-12T05:45:41;13.60;99.90
13346;DHT22;6742;48.036;15.780;2022-10-12T05:48:08;13.60;99.90
13346;DHT22;6742;48.036;15.780;2022-10-12T05:50:35;13.60;99.90
13346;DHT22;6742;48.036;15.780;2022-10-12T05:53:05;13.60;99.90
13346;DHT22;6742;48.036;15.780;2022-10-12T05:55:32;13.60;99.90
13346;DHT22;6742;48.036;15.780;2022-10-12T05:58:00;13.60;99.90
13346;DHT22;6742;48.036;15.780;2022-10-12T06:00:27;13.60;99.90
13346;DHT22;6742;48.036;15.780;2022-10-12T06:02:54;13.60;99.90
13346;DHT22;6742;48.036;15.780;2022-10-12T06:05:21;13.70;99.90
13346;DHT22;6742;48.036;15.780;2022-10-12T06:07:48;13.60;99.90
13346;DHT22;6742;48.036;15.780;2022-10-12T06:10:17;13.60;99.90
13346;DHT22;6742;48.036;15.780;2022-10-12T06:12:44;13.60;99.90
13346;DHT22;6742;48.036;15.780;2022-10-12T06:15:13;13.70;99.90
13346;DHT22;6742;48.036;15.780;2022-10-12T06:17:40;13.70;99.90
13346;DHT22;6742;48.036;15.780;2022-10-12T06:20:07;13.70;99.90
13346;DHT22;6742;48.036;15.780;2022-10-12T06:22:34;13.60;99.90
13346;DHT22;6742;48.036;15.780;2022-10-12T06:25:01;13.60;99.90
13346;DHT22;6742;48.036;15.780;2022-10-12T06:27:29;13.60;99.90
13346;DHT22;6742;48.036;15.780;2022-10-12T06:29:56;13.50;99.90
13346;DHT22;6742;48.036;15.780;2022-10-12T06:32:24;13.50;99.90
13346;DHT22;6742;48.036;15.780;2022-10-12T06:34:53;13.50;99.90
13346;DHT22;6742;48.036;15.780;2022-10-12T06:37:20;13.50;99.90
13346;DHT22;6742;48.036;15.780;2022-10-12T06:39:47;13.60;99.90
13346;DHT22;6742;48.036;15.780;2022-10-12T06:42:14;13.60;99.90
13346;DHT22;6742;48.036;15.780;2022-10-12T06:44:41;13.60;99.90
13346;DHT22;6742;48.036;15.780;2022-10-12T06:47:08;13.60;99.90
13346;DHT22;6742;48.036;15.780;2022-10-12T06:49:36;13.60;99.90
13346;DHT22;6742;48.036;15.780;2022-10-12T06:52:03;13.60;99.90
13346;DHT22;6742;48.036;15.780;2022-10-12T06:54:30;13.60;99.90
13346;DHT22;6742;48.036;15.780;2022-10-12T06:56:57;13.60;99.90
13346;DHT22;6742;48.036;15.780;2022-10-12T06:59:24;13.60;99.90
13346;DHT22;6742;48.036;15.780;2022-10-12T07:01:51;13.60;99.90
13346;DHT22;6742;48.036;15.780;2022-10-12T07:04:18;13.60;99.90
13346;DHT22;6742;48.036;15.780;2022-10-12T07:06:49;13.70;99.90
13346;DHT22;6742;48.036;15.780;2022-10-12T07:09:16;13.70;99.90
13346;DHT22;6742;48.036;15.780;2022-10-12T07:11:43;13.70;99.90
13346;DHT22;6742;48.036;15.780;2022-10-12T07:14:10;13.70;99.90
13346;DHT22;6742;48.036;15.780;2022-10-12T07:16:37;13.70;99.90
13346;DHT22;6742;48.036;15.780;2022-10-12T07:19:04;13.70;99.90
13346;DHT22;6742;48.036;15.780;2022-10-12T07:21:31;13.70;99.90
13346;DHT22;6742;48.036;15.780;2022-10-12T07:23:59;13.70;99.90
13346;DHT22;6742;48.036;15.780;2022-10-12T07:26:26;13.70;99.90
13346;DHT22;6742;48.036;15.780;2022-10-12T07:28:53;13.70;99.90
13346;DHT22;6742;48.036;15.780;2022-10-12T07:31:20;13.70;99.90
13346;DHT22;6742;48.036;15.780;2022-10-12T07:33:46;13.70;99.90
13346;DHT22;6742;48.036;15.780;2022-10-12T07:36:13;13.80;99.90
13346;DHT22;6742;48.036;15.780;2022-10-12T07:38:41;13.90;99.90
13346;DHT22;6742;48.036;15.780;2022-10-12T07:41:11;14.00;99.90
13346;DHT22;6742;48.036;15.780;2022-10-12T07:43:38;14.10;99.90
13346;DHT22;6742;48.036;15.780;2022-10-12T07:46:06;14.30;99.90
13346;DHT22;6742;48.036;15.780;2022-10-12T07:48:33;14.40;99.90
13346;DHT22;6742;48.036;15.780;2022-10-12T07:51:02;14.40;99.90
13346;DHT22;6742;48.036;15.780;2022-10-12T07:53:29;14.40;99.90
13346;DHT22;6742;48.036;15.780;2022-10-12T07:56:03;14.40;99.90
13346;DHT22;6742;48.036;15.780;2022-10-12T07:58:32;14.50;99.90
13346;DHT22;6742;48.036;15.780;2022-10-12T08:01:03;14.60;99.90
13346;DHT22;6742;48.036;15.780;2022-10-12T08:03:30;14.60;99.90
13346;DHT22;6742;48.036;15.780;2022-10-12T08:05:57;14.90;99.90
13346;DHT22;6742;48.036;15.780;2022-10-12T08:08:24;15.10;99.90
13346;DHT22;6742;48.036;15.780;2022-10-12T08:10:54;15.40;99.90
13346;DHT22;6742;48.036;15.780;2022-10-12T08:13:26;15.60;99.90
13346;DHT22;6742;48.036;15.780;2022-10-12T08:15:57;15.50;99.90
13346;DHT22;6742;48.036;15.780;2022-10-12T08:18:24;15.70;99.90
13346;DHT22;6742;48.036;15.780;2022-10-12T08:20:51;15.90;99.90
13346;DHT22;6742;48.036;15.780;2022-10-12T08:23:18;15.90;99.90
13346;DHT22;6742;48.036;15.780;2022-10-12T08:25:50;15.90;99.90
13346;DHT22;6742;48.036;15.780;2022-10-12T08:28:17;15.90;99.90
13346;DHT22;6742;48.036;15.780;2022-10-12T08:30:44;16.00;99.90
13346;DHT22;6742;48.036;15.780;2022-10-12T08:33:13;16.00;99.90
13346;DHT22;6742;48.036;15.780;2022-10-12T08:35:41;16.10;99.90
13346;DHT22;6742;48.036;15.780;2022-10-12T08:38:10;16.20;99.90
13346;DHT22;6742;48.036;15.780;2022-10-12T08:40:45;16.20;99.90
13346;DHT22;6742;48.036;15.780;2022-10-12T08:43:18;16.20;99.90
13346;DHT22;6742;48.036;15.780;2022-10-12T08:45:52;16.10;99.90
13346;DHT22;6742;48.036;15.780;2022-10-12T08:48:24;16.00;99.90
13346;DHT22;6742;48.036;15.780;2022-10-12T08:50:53;16.00;99.90
13346;DHT22;6742;48.036;15.780;2022-10-12T08:53:24;16.00;99.90
13346;DHT22;6742;48.036;15.780;2022-10-12T08:55:52;16.00;99.90
13346;DHT22;6742;48.036;15.780;2022-10-12T08:58:20;15.90;99.90
13346;DHT22;6742;48.036;15.780;2022-10-12T09:00:51;16.00;99.90
13346;DHT22;6742;48.036;15.780;2022-10-12T09:03:32;16.10;99.90
13346;DHT22;6742;48.036;15.780;2022-10-12T09:06:07;16.20;99.90
13346;DHT22;6742;48.036;15.780;2022-10-12T09:08:56;16.20;99.90
13346;DHT22;6742;48.036;15.780;2022-10-12T09:11:38;16.20;99.90
13346;DHT22;6742;48.036;15.780;2022-10-12T09:14:10;16.10;99.90
13346;DHT22;6742;48.036;15.780;2022-10-12T09:16:43;16.00;99.90
13346;DHT22;6742;48.036;15.780;2022-10-12T09:19:18;16.00;99.90
13346;DHT22;6742;48.036;15.780;2022-10-12T09:21:47;16.00;99.90
13346;DHT22;6742;48.036;15.780;2022-10-12T09:24:18;15.90;99.90
13346;DHT22;6742;48.036;15.780;2022-10-12T09:26:47;15.90;99.90
13346;DHT22;6742;48.036;15.780;2022-10-12T09:29:24;15.90;99.90
13346;DHT22;6742;48.036;15.780;2022-10-12T09:32:06;16.00;99.90
13346;DHT22;6742;48.036;15.780;2022-10-12T09:34:35;16.10;99.90
13346;DHT22;6742;48.036;15.780;2022-10-12T09:37:03;16.20;99.90
13346;DHT22;6742;48.036;15.780;2022-10-12T09:39:33;16.40;99.90
13346;DHT22;6742;48.036;15.780;2022-10-12T09:42:01;16.50;99.90
13346;DHT22;6742;48.036;15.780;2022-10-12T09:44:32;16.50;99.90
13346;DHT22;6742;48.036;15.780;2022-10-12T09:47:03;16.60;99.90
13346;DHT22;6742;48.036;15.780;2022-10-12T09:49:40;16.70;99.90
13346;DHT22;6742;48.036;15.780;2022-10-12T09:52:08;16.60;99.90
13346;DHT22;6742;48.036;15.780;2022-10-12T09:54:39;16.60;99.90
13346;DHT22;6742;48.036;15.780;2022-10-12T09:57:07;16.60;99.90
13346;DHT22;6742;48.036;15.780;2022-10-12T09:59:36;16.60;99.90
13346;DHT22;6742;48.036;15.780;2022-10-12T10:02:13;16.60;99.90
13346;DHT22;6742;48.036;15.780;2022-10-12T10:04:42;16.70;99.90
13346;DHT22;6742;48.036;15.780;2022-10-12T10:07:27;16.80;99.90
13346;DHT22;6742;48.036;15.780;2022-10-12T10:10:12;16.80;99.90
13346;DHT22;6742;48.036;15.780;2022-10-12T10:12:49;16.90;99.90
13346;DHT22;6742;48.036;15.780;2022-10-12T10:15:27;17.00;99.90
13346;DHT22;6742;48.036;15.780;2022-10-12T10:17:57;17.00;99.90
13346;DHT22;6742;48.036;15.780;2022-10-12T10:20:40;16.90;99.90
13346;DHT22;6742;48.036;15.780;2022-10-12T10:23:22;16.80;99.90
13346;DHT22;6742;48.036;15.780;2022-10-12T10:25:55;16.90;99.90
13346;DHT22;6742;48.036;15.780;2022-10-12T10:28:24;16.90;99.90
13346;DHT22;6742;48.036;15.780;2022-10-12T10:30:59;17.00;99.90
13346;DHT22;6742;48.036;15.780;2022-10-12T10:33:28;17.10;99.90
13346;DHT22;6742;48.036;15.780;2022-10-12T10:36:02;17.10;99.90
13346;DHT22;6742;48.036;15.780;2022-10-12T10:38:32;17.10;99.90
13346;DHT22;6742;48.036;15.780;2022-10-12T10:41:02;17.20;99.90
13346;DHT22;6742;48.036;15.780;2022-10-12T10:43:31;17.20;99.90
13346;DHT22;6742;48.036;15.780;2022-10-12T10:45:59;17.30;99.90
13346;DHT22;6742;48.036;15.780;2022-10-12T10:48:29;17.30;99.90
13346;DHT22;6742;48.036;15.780;2022-10-12T10:50:59;17.20;99.90
13346;DHT22;6742;48.036;15.780;2022-10-12T10:53:30;17.10;99.90
13346;DHT22;6742;48.036;15.780;2022-10-12T10:56:02;17.10;99.90
13346;DHT22;6742;48.036;15.780;2022-10-12T10:58:34;17.10;99.90
13346;DHT22;6742;48.036;15.780;2022-10-12T11:01:07;17.10;99.90
13346;DHT22;6742;48.036;15.780;2022-10-12T11:03:46;17.10;99.90
13346;DHT22;6742;48.036;15.780;2022-10-12T11:06:21;17.00;99.90
13346;DHT22;6742;48.036;15.780;2022-10-12T11:08:55;16.90;99.90
13346;DHT22;6742;48.036;15.780;2022-10-12T11:11:26;17.00;99.90
13346;DHT22;6742;48.036;15.780;2022-10-12T11:13:56;17.00;99.90
13346;DHT22;6742;48.036;15.780;2022-10-12T11:16:30;17.00;99.90
13346;DHT22;6742;48.036;15.780;2022-10-12T11:19:02;17.10;99.90
13346;DHT22;6742;48.036;15.780;2022-10-12T11:21:38;17.30;99.90
13346;DHT22;6742;48.036;15.780;2022-10-12T11:24:12;17.50;99.90
13346;DHT22;6742;48.036;15.780;2022-10-12T11:26:43;17.70;99.90
13346;DHT22;6742;48.036;15.780;2022-10-12T11:29:12;17.80;99.90
13346;DHT22;6742;48.036;15.780;2022-10-12T11:31:47;17.90;99.90
13346;DHT22;6742;48.036;15.780;2022-10-12T11:34:21;18.00;99.90
13346;DHT22;6742;48.036;15.780;2022-10-12T11:36:52;18.10;99.90
13346;DHT22;6742;48.036;15.780;2022-10-12T11:39:27;18.10;99.90
13346;DHT22;6742;48.036;15.780;2022-10-12T11:41:56;18.30;99.90
13346;DHT22;6742;48.036;15.780;2022-10-12T11:44:29;18.20;99.90
13346;DHT22;6742;48.036;15.780;2022-10-12T11:47:03;18.20;99.90
13346;DHT22;6742;48.036;15.780;2022-10-12T11:49:36;18.20;99.90
13346;DHT22;6742;48.036;15.780;2022-10-12T11:52:10;18.30;99.90
13346;DHT22;6742;48.036;15.780;2022-10-12T11:54:42;18.30;99.90
13346;DHT22;6742;48.036;15.780;2022-10-12T11:57:13;18.20;99.90
13346;DHT22;6742;48.036;15.780;2022-10-12T11:59:44;18.20;99.90
13346;DHT22;6742;48.036;15.780;2022-10-12T12:02:18;18.10;99.90
13346;DHT22;6742;48.036;15.780;2022-10-12T12:04:47;18.20;99.90
13346;DHT22;6742;48.036;15.780;2022-10-12T12:07:42;18.20;99.90
13346;DHT22;6742;48.036;15.780;2022-10-12T12:13:29;18.30;99.90
13346;DHT22;6742;48.036;15.780;2022-10-12T12:16:42;18.20;99.90
13346;DHT22;6742;48.036;15.780;2022-10-12T12:22:18;18.30;99.90
13346;DHT22;6742;48.036;15.780;2022-10-12T12:25:16;18.30;99.90
13346;DHT22;6742;48.036;15.780;2022-10-12T12:27:46;18.20;99.90
13346;DHT22;6742;48.036;15.780;2022-10-12T12:30:34;18.20;99.90
13346;DHT22;6742;48.036;15.780;2022-10-12T12:33:05;18.10;99.90
13346;DHT22;6742;48.036;15.780;2022-10-12T12:35:52;17.90;99.90
13346;DHT22;6742;48.036;15.780;2022-10-12T12:38:23;17.80;99.90
13346;DHT22;6742;48.036;15.780;2022-10-12T12:41:02;17.70;99.90
13346;DHT22;6742;48.036;15.780;2022-10-12T12:44:00;17.60;99.90
13346;DHT22;6742;48.036;15.780;2022-10-12T12:49:41;17.50;99.90
13346;DHT22;6742;48.036;15.780;2022-10-12T12:52:15;17.50;99.90
13346;DHT22;6742;48.036;15.780;2022-10-12T12:54:52;17.50;99.90
13346;DHT22;6742;48.036;15.780;2022-10-12T13:00:23;17.60;99.90
13346;DHT22;6742;48.036;15.780;2022-10-12T13:03:30;17.60;99.90
13346;DHT22;6742;48.036;15.780;2022-10-12T13:06:28;17.60;99.90
13346;DHT22;6742;48.036;15.780;2022-10-12T13:09:22;17.70;99.90
13346;DHT22;6742;48.036;15.780;2022-10-12T13:15:07;17.90;99.90
13346;DHT22;6742;48.036;15.780;2022-10-12T13:17:49;17.90;99.90
13346;DHT22;6742;48.036;15.780;2022-10-12T13:20:25;18.00;99.90
13346;DHT22;6742;48.036;15.780;2022-10-12T13:22:54;18.00;99.90
13346;DHT22;6742;48.036;15.780;2022-10-12T13:25:32;18.00;99.90
13346;DHT22;6742;48.036;15.780;2022-10-12T13:28:03;18.00;99.90
13346;DHT22;6742;48.036;15.780;2022-10-12T13:30:37;17.90;99.90
13346;DHT22;6742;48.036;15.780;2022-10-12T13:33:11;17.90;99.90
13346;DHT22;6742;48.036;15.780;2022-10-12T13:35:44;17.80;99.90
13346;DHT22;6742;48.036;15.780;2022-10-12T13:38:20;17.80;99.90
13346;DHT22;6742;48.036;15.780;2022-10-12T13:40:52;17.70;99.90
13346;DHT22;6742;48.036;15.780;2022-10-12T13:43:27;17.70;99.90
13346;DHT22;6742;48.036;15.780;2022-10-12T13:45:56;17.70;99.90
13346;DHT22;6742;48.036;15.780;2022-10-12T13:48:24;17.70;99.90
13346;DHT22;6742;48.036;15.780;2022-10-12T13:50:53;17.70;99.90
13346;DHT22;6742;48.036;15.780;2022-10-12T13:53:21;17.80;99.90
13346;DHT22;6742;48.036;15.780;2022-10-12T13:55:58;17.80;99.90
13346;DHT22;6742;48.036;15.780;2022-10-12T13:58:30;17.80;99.90
13346;DHT22;6742;48.036;15.780;2022-10-12T14:01:00;17.90;99.90
13346;DHT22;6742;48.036;15.780;2022-10-12T14:03:35;17.90;99.90
13346;DHT22;6742;48.036;15.780;2022-10-12T14:06:02;17.80;99.90
13346;DHT22;6742;48.036;15.780;2022-10-12T14:08:31;17.80;99.90
13346;DHT22;6742;48.036;15.780;2022-10-12T14:11:00;17.70;99.90
13346;DHT22;6742;48.036;15.780;2022-10-12T14:13:29;17.70;99.90
13346;DHT22;6742;48.036;15.780;2022-10-12T14:15:59;17.60;99.90
13346;DHT22;6742;48.036;15.780;2022-10-12T14:18:38;17.60;99.90
13346;DHT22;6742;48.036;15.780;2022-10-12T14:21:16;17.50;99.90
13346;DHT22;6742;48.036;15.780;2022-10-12T14:23:45;17.40;99.90
13346;DHT22;6742;48.036;15.780;2022-10-12T14:26:22;17.40;99.90
13346;DHT22;6742;48.036;15.780;2022-10-12T14:28:50;17.40;99.90
13346;DHT22;6742;48.036;15.780;2022-10-12T14:31:18;17.30;99.90
13346;DHT22;6742;48.036;15.780;2022-10-12T14:33:45;17.20;99.90
13346;DHT22;6742;48.036;15.780;2022-10-12T14:36:14;17.20;99.90
13346;DHT22;6742;48.036;15.780;2022-10-12T14:38:48;17.10;99.90
13346;DHT22;6742;48.036;15.780;2022-10-12T14:41:42;17.00;99.90
13346;DHT22;6742;48.036;15.780;2022-10-12T14:44:12;16.90;99.90
13346;DHT22;6742;48.036;15.780;2022-10-12T14:46:45;16.80;99.90
13346;DHT22;6742;48.036;15.780;2022-10-12T14:49:16;16.70;99.90
13346;DHT22;6742;48.036;15.780;2022-10-12T14:51:43;16.60;99.90
13346;DHT22;6742;48.036;15.780;2022-10-12T14:54:10;16.60;99.90
13346;DHT22;6742;48.036;15.780;2022-10-12T14:56:37;16.50;99.90
13346;DHT22;6742;48.036;15.780;2022-10-12T14:59:04;16.50;99.90
13346;DHT22;6742;48.036;15.780;2022-10-12T15:01:37;16.50;99.90
13346;DHT22;6742;48.036;15.780;2022-10-12T15:04:06;16.40;99.90
13346;DHT22;6742;48.036;15.780;2022-10-12T15:06:33;16.30;99.90
13346;DHT22;6742;48.036;15.780;2022-10-12T15:08:59;16.30;99.90
13346;DHT22;6742;48.036;15.780;2022-10-12T15:11:26;16.30;99.90
13346;DHT22;6742;48.036;15.780;2022-10-12T15:13:53;16.20;99.90
13346;DHT22;6742;48.036;15.780;2022-10-12T15:16:24;16.20;99.90
13346;DHT22;6742;48.036;15.780;2022-10-12T15:18:51;16.10;99.90
13346;DHT22;6742;48.036;15.780;2022-10-12T15:21:20;16.20;99.90
13346;DHT22;6742;48.036;15.780;2022-10-12T15:23:47;16.10;99.90
13346;DHT22;6742;48.036;15.780;2022-10-12T15:26:15;16.10;99.90
13346;DHT22;6742;48.036;15.780;2022-10-12T15:28:42;16.10;99.90
13346;DHT22;6742;48.036;15.780;2022-10-12T15:31:10;16.10;99.90
13346;DHT22;6742;48.036;15.780;2022-10-12T15:33:39;16.00;99.90
13346;DHT22;6742;48.036;15.780;2022-10-12T15:36:06;16.00;99.90
13346;DHT22;6742;48.036;15.780;2022-10-12T15:38:41;16.00;99.90
13346;DHT22;6742;48.036;15.780;2022-10-12T15:41:14;16.00;99.90
13346;DHT22;6742;48.036;15.780;2022-10-12T15:43:42;16.00;99.90
13346;DHT22;6742;48.036;15.780;2022-10-12T15:46:10;16.00;99.90
13346;DHT22;6742;48.036;15.780;2022-10-12T15:48:37;16.00;99.90
13346;DHT22;6742;48.036;15.780;2022-10-12T15:51:08;16.00;99.90
13346;DHT22;6742;48.036;15.780;2022-10-12T15:53:40;16.00;99.90
13346;DHT22;6742;48.036;15.780;2022-10-12T15:56:10;16.00;99.90
13346;DHT22;6742;48.036;15.780;2022-10-12T15:58:39;16.00;99.90
13346;DHT22;6742;48.036;15.780;2022-10-12T16:01:08;16.00;99.90
13346;DHT22;6742;48.036;15.780;2022-10-12T16:03:36;16.00;99.90
13346;DHT22;6742;48.036;15.780;2022-10-12T16:06:03;15.90;99.90
13346;DHT22;6742;48.036;15.780;2022-10-12T16:08:30;15.90;99.90